createdAt,value
2024-02-22T00:02:25.023Z,2.70
2024-02-22T00:04:52.035Z,2.30
2024-02-22T00:07:19.061Z,2.40
2024-02-22T00:09:46.093Z,2.53
2024-02-22T00:12:13.386Z,2.70
2024-02-22T00:14:41.855Z,2.77
2024-02-22T00:17:09.078Z,2.27
2024-02-22T00:19:36.743Z,2.57
2024-02-22T00:22:03.795Z,2.10
2024-02-22T00:24:30.759Z,2.50
2024-02-22T00:26:57.629Z,2.27
2024-02-22T00:29:24.526Z,1.83
2024-02-22T00:31:51.552Z,1.93
2024-02-22T00:34:18.584Z,2.03
2024-02-22T00:36:45.829Z,2.00
2024-02-22T00:39:12.739Z,2.40
2024-02-22T00:41:39.759Z,2.07
2024-02-22T00:44:08.321Z,2.53
2024-02-22T00:46:37.054Z,2.10
2024-02-22T00:49:04.363Z,2.40
2024-02-22T00:51:31.372Z,2.60
2024-02-22T00:53:58.371Z,2.70
2024-02-22T00:56:25.410Z,2.20
2024-02-22T00:58:52.718Z,2.20
2024-02-22T01:01:19.741Z,1.90
2024-02-22T01:03:46.734Z,2.00
2024-02-22T01:06:16.079Z,2.23
2024-02-22T01:08:43.004Z,2.13
2024-02-22T01:11:10.001Z,2.00
2024-02-22T01:13:37.114Z,2.13
2024-02-22T01:16:04.404Z,2.23
2024-02-22T01:18:31.400Z,1.73
2024-02-22T01:20:58.351Z,1.67
2024-02-22T01:23:25.558Z,2.77
2024-02-22T01:25:52.470Z,2.43
2024-02-22T01:28:19.568Z,1.90
2024-02-22T01:30:46.455Z,1.43
2024-02-22T01:33:13.562Z,1.80
2024-02-22T01:35:40.833Z,2.53
2024-02-22T01:38:07.892Z,1.70
2024-02-22T01:40:34.950Z,2.17
2024-02-22T01:43:01.849Z,1.60
2024-02-22T01:45:28.715Z,1.70
2024-02-22T01:47:55.982Z,1.43
2024-02-22T01:50:24.232Z,1.67
2024-02-22T01:52:51.716Z,1.43
2024-02-22T01:55:21.461Z,1.50
2024-02-22T01:57:50.376Z,1.60
2024-02-22T02:00:19.438Z,1.70
2024-02-22T02:02:48.742Z,1.40
2024-02-22T02:05:16.069Z,1.57
2024-02-22T02:07:43.527Z,1.10
2024-02-22T02:10:10.766Z,1.50
2024-02-22T02:12:38.658Z,1.60
2024-02-22T02:15:07.057Z,1.23
2024-02-22T02:17:35.216Z,1.40
2024-02-22T02:20:06.208Z,1.37
2024-02-22T02:22:52.394Z,1.43
2024-02-22T02:25:19.652Z,1.47
2024-02-22T02:27:47.708Z,1.50
2024-02-22T02:30:14.727Z,1.53
2024-02-22T02:32:41.836Z,1.40
2024-02-22T02:35:09.281Z,1.50
2024-02-22T02:37:37.427Z,1.27
2024-02-22T02:40:05.265Z,1.63
2024-02-22T02:42:32.546Z,1.20
2024-02-22T02:44:59.533Z,1.17
2024-02-22T02:47:26.446Z,1.03
2024-02-22T02:49:53.391Z,1.50
2024-02-22T02:52:20.307Z,1.13
2024-02-22T02:54:47.181Z,1.20
2024-02-22T02:57:14.042Z,1.20
2024-02-22T02:59:41.126Z,0.70
2024-02-22T03:02:08.345Z,1.53
2024-02-22T03:04:35.962Z,1.30
2024-02-22T03:07:03.050Z,1.47
2024-02-22T03:09:30.230Z,0.87
2024-02-22T03:11:57.333Z,0.90
2024-02-22T03:14:24.319Z,1.00
2024-02-22T03:16:51.248Z,0.83
2024-02-22T03:19:18.404Z,1.00
2024-02-22T03:21:45.297Z,1.50
2024-02-22T03:24:12.209Z,1.00
2024-02-22T03:26:39.064Z,0.97
2024-02-22T03:29:07.049Z,1.00
2024-02-22T03:31:34.144Z,1.00
2024-02-22T03:34:01.614Z,0.83
2024-02-22T03:36:28.577Z,1.07
2024-02-22T03:38:55.470Z,1.37
2024-02-22T03:41:26.660Z,1.10
2024-02-22T03:43:53.892Z,1.20
2024-02-22T03:46:21.143Z,1.27
2024-02-22T03:48:48.161Z,1.07
2024-02-22T03:51:15.105Z,1.00
2024-02-22T03:53:42.059Z,1.10
2024-02-22T03:56:09.062Z,0.97
2024-02-22T03:58:36.242Z,1.10
2024-02-22T04:01:03.987Z,1.10
2024-02-22T04:03:32.388Z,1.13
2024-02-22T04:05:59.364Z,0.90
2024-02-22T04:08:26.318Z,0.80
2024-02-22T04:10:53.433Z,1.17
2024-02-22T04:13:20.345Z,1.03
2024-02-22T04:15:48.890Z,1.23
2024-02-22T04:18:15.928Z,1.10
2024-02-22T04:20:42.871Z,1.27
2024-02-22T04:23:09.778Z,1.17
2024-02-22T04:25:36.942Z,0.90
2024-02-22T04:28:04.819Z,1.20
2024-02-22T04:30:31.735Z,0.90
2024-02-22T04:32:58.711Z,0.90
2024-02-22T04:35:25.776Z,1.10
2024-02-22T04:37:54.405Z,1.27
2024-02-22T04:40:21.696Z,1.33
2024-02-22T04:42:48.648Z,1.30
2024-02-22T04:45:15.561Z,1.03
2024-02-22T04:47:42.474Z,1.00
2024-02-22T04:50:10.290Z,1.10
2024-02-22T04:52:37.322Z,1.20
2024-02-22T04:55:05.029Z,0.80
2024-02-22T04:57:32.658Z,1.27
2024-02-22T04:59:59.594Z,1.10
2024-02-22T05:02:26.705Z,1.07
2024-02-22T05:04:53.685Z,1.07
2024-02-22T05:07:20.587Z,1.07
2024-02-22T05:09:47.436Z,1.20
2024-02-22T05:12:14.436Z,1.10
2024-02-22T05:14:45.721Z,1.10
2024-02-22T05:17:15.602Z,1.30
2024-02-22T05:19:42.550Z,1.20
2024-02-22T05:22:09.554Z,1.50
2024-02-22T05:24:36.459Z,1.23
2024-02-22T05:27:04.041Z,1.40
2024-02-22T05:29:31.075Z,1.10
2024-02-22T05:31:59.141Z,1.00
2024-02-22T05:34:26.765Z,1.07
2024-02-22T05:36:53.799Z,1.00
2024-02-22T05:39:20.773Z,1.10
2024-02-22T05:41:47.678Z,1.10
2024-02-22T05:44:15.568Z,1.10
2024-02-22T05:46:42.505Z,1.40
2024-02-22T05:49:09.625Z,1.20
2024-02-22T05:51:36.577Z,1.30
2024-02-22T05:54:04.334Z,1.40
2024-02-22T05:56:31.535Z,0.90
2024-02-22T05:58:58.557Z,1.00
2024-02-22T06:01:25.591Z,0.90
2024-02-22T06:03:52.626Z,1.50
2024-02-22T06:06:20.507Z,1.00
2024-02-22T06:08:47.385Z,1.40
2024-02-22T06:11:18.176Z,1.27
2024-02-22T06:13:45.354Z,0.97
2024-02-22T06:16:12.336Z,1.20
2024-02-22T06:18:39.363Z,1.10
2024-02-22T06:21:08.225Z,1.30
2024-02-22T06:23:38.035Z,1.23
2024-02-22T06:26:05.366Z,1.53
2024-02-22T06:28:34.918Z,1.70
2024-02-22T06:31:02.445Z,1.30
2024-02-22T06:33:29.745Z,2.33
2024-02-22T06:35:57.098Z,1.20
2024-02-22T06:38:25.020Z,1.10
2024-02-22T06:40:52.541Z,1.30
2024-02-22T06:43:20.016Z,1.00
2024-02-22T06:45:47.156Z,0.93
2024-02-22T06:48:14.320Z,1.00
2024-02-22T06:50:41.436Z,0.93
2024-02-22T06:53:08.906Z,1.70
2024-02-22T06:55:36.250Z,1.37
2024-02-22T06:58:04.469Z,1.40
2024-02-22T07:00:34.301Z,1.40
2024-02-22T07:03:05.430Z,1.57
2024-02-22T07:05:33.473Z,1.27
2024-02-22T07:08:00.744Z,2.43
2024-02-22T07:10:27.876Z,1.77
2024-02-22T07:12:56.821Z,1.30
2024-02-22T07:15:24.090Z,1.13
2024-02-22T07:17:51.259Z,1.23
2024-02-22T07:20:18.554Z,1.20
2024-02-22T07:22:50.345Z,4.33
2024-02-22T07:25:20.035Z,5.47
2024-02-22T07:27:47.297Z,1.27
2024-02-22T07:30:17.411Z,1.30
2024-02-22T07:32:45.000Z,1.33
2024-02-22T07:35:14.606Z,1.00
2024-02-22T07:37:42.912Z,1.20
2024-02-22T07:40:10.655Z,1.77
2024-02-22T07:42:37.685Z,1.47
2024-02-22T07:45:05.494Z,1.30
2024-02-22T07:47:32.744Z,1.30
2024-02-22T07:50:00.548Z,1.67
2024-02-22T07:52:27.630Z,1.50
2024-02-22T07:54:54.602Z,1.50
2024-02-22T07:57:21.526Z,1.23
2024-02-22T07:59:48.461Z,1.80
2024-02-22T08:02:15.458Z,1.90
2024-02-22T08:04:43.856Z,1.30
2024-02-22T08:07:10.913Z,1.73
2024-02-22T08:09:37.881Z,1.37
2024-02-22T08:12:05.654Z,1.03
2024-02-22T08:14:33.226Z,1.20
2024-02-22T08:17:00.622Z,1.40
2024-02-22T08:19:29.335Z,1.50
2024-02-22T08:21:56.481Z,1.70
2024-02-22T08:24:23.450Z,1.40
2024-02-22T08:26:51.051Z,2.90
2024-02-22T08:29:18.081Z,2.10
2024-02-22T08:31:47.098Z,2.00
2024-02-22T08:34:14.416Z,1.60
2024-02-22T08:36:41.986Z,2.00
2024-02-22T08:39:09.161Z,1.90
2024-02-22T08:41:36.143Z,1.77
2024-02-22T08:44:03.259Z,1.50
2024-02-22T08:46:30.732Z,1.80
2024-02-22T08:48:58.337Z,1.40
2024-02-22T08:51:25.349Z,1.93
2024-02-22T08:53:52.289Z,1.50
2024-02-22T08:56:19.503Z,1.60
2024-02-22T08:58:46.487Z,1.53
2024-02-22T09:01:13.632Z,2.00
2024-02-22T09:03:40.586Z,1.90
2024-02-22T09:06:08.088Z,1.80
2024-02-22T09:08:36.408Z,1.53
2024-02-22T09:11:03.774Z,1.70
2024-02-22T09:13:30.946Z,2.30
2024-02-22T09:15:58.467Z,1.63
2024-02-22T09:18:25.558Z,2.20
2024-02-22T09:20:53.522Z,2.00
2024-02-22T09:23:23.328Z,1.80
2024-02-22T09:25:50.398Z,2.00
2024-02-22T09:28:17.432Z,2.20
2024-02-22T09:30:44.453Z,1.90
2024-02-22T09:33:14.194Z,2.27
2024-02-22T09:35:42.701Z,2.50
2024-02-22T09:38:09.864Z,2.07
2024-02-22T09:40:38.743Z,1.83
2024-02-22T09:43:06.596Z,1.77
2024-02-22T09:45:34.217Z,9.20
2024-02-22T09:48:02.075Z,3.63
2024-02-22T09:50:29.558Z,6.33
2024-02-22T09:52:58.147Z,2.20
2024-02-22T09:55:26.055Z,1.93
2024-02-22T09:57:53.492Z,1.63
2024-02-22T10:00:20.930Z,1.53
2024-02-22T10:02:48.552Z,1.87
2024-02-22T10:05:16.832Z,2.40
2024-02-22T10:07:44.432Z,2.40
2024-02-22T10:10:12.417Z,1.90
2024-02-22T10:12:46.030Z,1.87
2024-02-22T10:15:26.981Z,1.87
2024-02-22T10:17:54.569Z,2.30
2024-02-22T10:20:32.014Z,1.60
2024-02-22T10:23:07.947Z,1.70
2024-02-22T10:25:36.323Z,2.00
2024-02-22T10:28:04.327Z,2.30
2024-02-22T10:30:33.604Z,1.93
2024-02-22T10:33:02.124Z,3.20
2024-02-22T10:35:29.781Z,3.53
2024-02-22T10:37:57.106Z,2.70
2024-02-22T10:40:25.885Z,4.03
2024-02-22T10:42:53.452Z,3.40
2024-02-22T10:45:20.450Z,2.23
2024-02-22T10:47:51.642Z,2.10
2024-02-22T10:50:23.291Z,3.00
2024-02-22T10:52:55.933Z,2.60
2024-02-22T10:55:26.194Z,3.53
2024-02-22T10:57:54.372Z,3.10
2024-02-22T11:00:22.163Z,2.40
2024-02-22T11:02:49.747Z,2.70
2024-02-22T11:05:16.776Z,2.40
2024-02-22T11:07:51.938Z,2.43
2024-02-22T11:10:21.194Z,1.80
2024-02-22T11:12:49.463Z,2.33
2024-02-22T11:15:17.023Z,2.10
2024-02-22T11:17:54.506Z,2.30
2024-02-22T11:20:35.067Z,1.80
2024-02-22T11:23:16.577Z,1.53
2024-02-22T11:25:44.018Z,2.03
2024-02-22T11:28:11.603Z,2.33
2024-02-22T11:30:41.171Z,2.70
2024-02-22T11:33:15.360Z,2.20
2024-02-22T11:35:42.801Z,5.00
2024-02-22T11:38:09.914Z,2.77
2024-02-22T11:40:37.635Z,2.17
2024-02-22T11:43:05.908Z,1.83
2024-02-22T11:45:34.658Z,1.70
2024-02-22T11:48:01.773Z,1.50
2024-02-22T11:50:32.832Z,1.43
2024-02-22T11:53:01.097Z,1.20
2024-02-22T11:55:28.724Z,1.30
2024-02-22T11:57:55.980Z,1.30
2024-02-22T12:00:23.132Z,1.17
2024-02-22T12:02:50.349Z,1.00
2024-02-22T12:05:21.906Z,1.30
2024-02-22T12:07:51.380Z,1.20
2024-02-22T12:10:18.699Z,1.00
2024-02-22T12:12:45.931Z,1.33
2024-02-22T12:15:22.383Z,1.00
2024-02-22T12:17:53.018Z,1.63
2024-02-22T12:20:24.236Z,1.50
2024-02-22T12:22:54.618Z,1.43
2024-02-22T12:25:22.034Z,1.30
2024-02-22T12:27:53.888Z,1.50
2024-02-22T12:30:22.861Z,1.50
2024-02-22T12:32:51.574Z,1.43
2024-02-22T12:35:19.831Z,1.50
2024-02-22T12:37:47.561Z,1.67
2024-02-22T12:40:14.666Z,1.87
2024-02-22T12:42:41.615Z,1.67
2024-02-22T12:45:09.785Z,1.40
2024-02-22T12:47:36.913Z,1.47
2024-02-22T12:50:04.321Z,1.40
2024-02-22T12:52:31.441Z,1.47
2024-02-22T12:54:58.787Z,1.70
2024-02-22T12:57:25.746Z,1.10
2024-02-22T12:59:52.710Z,2.23
2024-02-22T13:02:19.911Z,1.47
2024-02-22T13:04:47.102Z,1.10
2024-02-22T13:07:14.734Z,1.43
2024-02-22T13:09:42.285Z,1.07
2024-02-22T13:12:09.514Z,1.00
2024-02-22T13:14:37.098Z,1.10
2024-02-22T13:17:04.360Z,1.60
2024-02-22T13:19:31.426Z,1.10
2024-02-22T13:21:59.159Z,1.43
2024-02-22T13:24:26.136Z,1.13
2024-02-22T13:26:53.102Z,1.20
2024-02-22T13:29:20.219Z,0.97
2024-02-22T13:31:47.446Z,1.20
2024-02-22T13:34:14.721Z,1.17
2024-02-22T13:36:41.832Z,1.00
2024-02-22T13:39:10.762Z,1.30
2024-02-22T13:41:37.757Z,1.00
2024-02-22T13:44:11.740Z,1.30
2024-02-22T13:46:45.420Z,0.87
2024-02-22T13:49:19.666Z,1.20
2024-02-22T13:52:04.425Z,1.20
2024-02-22T13:54:37.946Z,1.10
2024-02-22T13:57:05.364Z,1.43
2024-02-22T13:59:32.461Z,0.90
2024-02-22T14:01:59.506Z,1.00
2024-02-22T14:04:26.559Z,0.90
2024-02-22T14:06:53.543Z,1.47
2024-02-22T14:09:20.568Z,1.17
2024-02-22T14:11:47.618Z,1.00
2024-02-22T14:14:14.693Z,0.70
2024-02-22T14:16:43.275Z,0.83
2024-02-22T14:19:10.394Z,1.27
2024-02-22T14:21:37.469Z,1.17
2024-02-22T14:24:06.933Z,0.83
2024-02-22T14:26:33.932Z,0.90
2024-02-22T14:29:00.960Z,0.90
2024-02-22T14:31:27.948Z,0.83
2024-02-22T14:33:55.568Z,0.83
2024-02-22T14:36:22.883Z,1.33
2024-02-22T14:38:51.785Z,0.90
2024-02-22T14:41:18.986Z,1.10
2024-02-22T14:43:46.191Z,0.90
2024-02-22T14:46:13.927Z,1.00
2024-02-22T14:48:44.321Z,0.87
2024-02-22T14:51:11.613Z,0.90
2024-02-22T14:53:38.571Z,1.00
2024-02-22T14:56:05.727Z,1.30
2024-02-22T14:58:32.720Z,0.83
2024-02-22T15:00:59.697Z,0.90
2024-02-22T15:03:28.745Z,0.80
2024-02-22T15:05:56.077Z,1.17
2024-02-22T15:08:23.171Z,0.77
2024-02-22T15:10:50.299Z,0.90
2024-02-22T15:13:17.310Z,0.97
2024-02-22T15:15:44.245Z,0.90
2024-02-22T15:18:11.241Z,1.40
2024-02-22T15:20:38.180Z,1.00
2024-02-22T15:23:05.882Z,0.90
2024-02-22T15:25:32.842Z,1.10
2024-02-22T15:27:59.761Z,0.60
2024-02-22T15:30:27.035Z,1.37
2024-02-22T15:32:57.463Z,1.00
2024-02-22T15:35:25.962Z,0.87
2024-02-22T15:37:53.046Z,1.10
2024-02-22T15:40:20.082Z,0.80
2024-02-22T15:42:49.753Z,1.33
2024-02-22T15:45:17.397Z,0.90
2024-02-22T15:47:44.433Z,1.10
2024-02-22T15:50:11.690Z,1.10
2024-02-22T15:52:38.779Z,1.00
2024-02-22T15:55:06.493Z,0.93
2024-02-22T15:57:33.509Z,1.07
2024-02-22T16:00:00.555Z,0.90
2024-02-22T16:02:27.667Z,0.90
2024-02-22T16:04:54.779Z,0.90
2024-02-22T16:07:22.158Z,0.90
2024-02-22T16:09:49.259Z,0.93
2024-02-22T16:12:16.246Z,1.43
2024-02-22T16:14:43.245Z,0.93
2024-02-22T16:17:10.337Z,1.00
2024-02-22T16:19:37.531Z,1.10
2024-02-22T16:22:07.455Z,1.30
2024-02-22T16:24:34.955Z,0.87
2024-02-22T16:27:02.038Z,1.20
2024-02-22T16:29:28.980Z,1.27
2024-02-22T16:31:55.988Z,1.40
2024-02-22T16:34:26.878Z,1.60
2024-02-22T16:36:53.896Z,1.20
2024-02-22T16:39:27.751Z,1.00
2024-02-22T16:41:57.967Z,1.37
2024-02-22T16:44:26.457Z,1.13
2024-02-22T16:46:53.709Z,1.40
2024-02-22T16:49:23.344Z,1.20
2024-02-22T16:51:51.702Z,1.47
2024-02-22T16:54:18.727Z,0.90
2024-02-22T16:56:45.697Z,0.80
2024-02-22T16:59:12.651Z,1.40
2024-02-22T17:01:39.683Z,1.00
2024-02-22T17:04:06.747Z,0.97
2024-02-22T17:06:34.518Z,0.80
2024-02-22T17:09:01.600Z,0.97
2024-02-22T17:11:28.796Z,1.70
2024-02-22T17:13:55.837Z,1.30
2024-02-22T17:16:22.896Z,1.80
2024-02-22T17:18:50.575Z,1.27
2024-02-22T17:21:20.016Z,1.70
2024-02-22T17:23:47.011Z,1.73
2024-02-22T17:26:14.138Z,1.20
2024-02-22T17:28:41.174Z,1.03
2024-02-22T17:31:10.134Z,1.50
2024-02-22T17:33:37.550Z,1.80
2024-02-22T17:36:05.394Z,0.90
2024-02-22T17:38:35.645Z,1.83
2024-02-22T17:41:02.864Z,1.60
2024-02-22T17:43:30.232Z,1.23
2024-02-22T17:45:57.232Z,1.20
2024-02-22T17:48:25.371Z,1.03
2024-02-22T17:50:52.563Z,1.60
2024-02-22T17:53:20.257Z,1.10
2024-02-22T17:55:47.413Z,1.20
2024-02-22T17:58:14.956Z,1.37
2024-02-22T18:00:43.555Z,1.57
2024-02-22T18:03:11.016Z,1.20
2024-02-22T18:05:38.366Z,1.30
2024-02-22T18:08:08.609Z,1.20
2024-02-22T18:10:36.773Z,1.50
2024-02-22T18:13:04.660Z,1.50
2024-02-22T18:15:32.597Z,1.40
2024-02-22T18:18:01.463Z,1.10
2024-02-22T18:20:36.460Z,1.10
2024-02-22T18:23:05.413Z,1.07
2024-02-22T18:25:32.846Z,0.90
2024-02-22T18:28:00.036Z,0.93
2024-02-22T18:30:26.996Z,1.70
2024-02-22T18:32:54.494Z,1.20
2024-02-22T18:35:21.747Z,1.33
2024-02-22T18:37:48.800Z,1.10
2024-02-22T18:40:15.981Z,1.17
2024-02-22T18:42:43.627Z,1.00
2024-02-22T18:45:11.219Z,1.40
2024-02-22T18:47:38.307Z,1.50
2024-02-22T18:50:06.514Z,1.17
2024-02-22T18:52:34.503Z,0.87
2024-02-22T18:55:02.458Z,1.10
2024-02-22T18:57:29.498Z,1.33
2024-02-22T18:59:56.435Z,1.07
2024-02-22T19:02:23.454Z,1.00
2024-02-22T19:04:50.650Z,1.33
2024-02-22T19:07:20.346Z,1.10
2024-02-22T19:09:49.152Z,1.10
2024-02-22T19:12:16.316Z,1.03
2024-02-22T19:14:43.278Z,0.83
2024-02-22T19:17:11.206Z,1.20
2024-02-22T19:19:39.782Z,1.30
2024-02-22T19:22:09.156Z,0.73
2024-02-22T19:24:36.219Z,3.30
2024-02-22T19:27:04.732Z,1.47
2024-02-22T19:29:31.904Z,1.33
2024-02-22T19:32:00.163Z,0.70
2024-02-22T19:34:28.291Z,1.27
2024-02-22T19:36:55.284Z,1.17
2024-02-22T19:39:22.628Z,0.93
2024-02-22T19:41:50.641Z,0.90
2024-02-22T19:44:19.804Z,1.23
2024-02-22T19:46:46.892Z,0.90
2024-02-22T19:49:13.987Z,1.07
2024-02-22T19:51:42.530Z,0.97
2024-02-22T19:54:09.899Z,0.90
2024-02-22T19:56:36.813Z,0.80
2024-02-22T19:59:03.846Z,1.00
2024-02-22T20:01:31.097Z,0.80
2024-02-22T20:03:58.480Z,1.10
2024-02-22T20:06:26.452Z,0.90
2024-02-22T20:08:56.244Z,0.90
2024-02-22T20:11:25.055Z,1.10
2024-02-22T20:13:54.667Z,0.80
2024-02-22T20:16:25.005Z,0.80
2024-02-22T20:18:52.317Z,1.00
2024-02-22T20:21:21.047Z,0.70
2024-02-22T20:23:48.088Z,1.00
2024-02-22T20:26:15.296Z,0.83
2024-02-22T20:28:42.321Z,1.03
2024-02-22T20:31:10.855Z,1.00
2024-02-22T20:33:38.133Z,0.67
2024-02-22T20:36:09.051Z,0.70
2024-02-22T20:38:36.095Z,0.90
2024-02-22T20:41:04.345Z,0.90
2024-02-22T20:43:31.370Z,1.03
2024-02-22T20:45:58.547Z,0.90
2024-02-22T20:48:27.374Z,0.90
2024-02-22T20:50:54.396Z,0.80
2024-02-22T20:53:22.478Z,0.80
2024-02-22T20:55:52.163Z,1.10
2024-02-22T20:58:19.136Z,1.20
2024-02-22T21:00:46.052Z,0.90
2024-02-22T21:03:13.018Z,0.50
2024-02-22T21:05:40.056Z,0.90
2024-02-22T21:08:07.474Z,1.00
2024-02-22T21:10:36.439Z,1.60
2024-02-22T21:13:03.529Z,1.03
2024-02-22T21:15:31.358Z,0.63
2024-02-22T21:17:58.549Z,1.43
2024-02-22T21:20:25.983Z,0.80
2024-02-22T21:22:53.681Z,0.60
2024-02-22T21:25:20.985Z,0.83
2024-02-22T21:27:47.949Z,0.80
2024-02-22T21:30:16.528Z,1.03
2024-02-22T21:32:46.141Z,0.97
2024-02-22T21:35:13.321Z,1.00
2024-02-22T21:37:41.500Z,0.70
2024-02-22T21:40:10.906Z,0.70
2024-02-22T21:42:38.010Z,0.70
2024-02-22T21:45:06.144Z,0.57
2024-02-22T21:47:35.446Z,0.80
2024-02-22T21:50:09.371Z,0.90
2024-02-22T21:52:37.466Z,0.80
2024-02-22T21:55:05.613Z,0.70
2024-02-22T21:57:34.046Z,0.90
2024-02-22T22:00:01.763Z,0.70
2024-02-22T22:02:28.960Z,0.70
2024-02-22T22:04:56.180Z,0.80
2024-02-22T22:07:23.162Z,1.00
2024-02-22T22:09:50.472Z,0.97
2024-02-22T22:12:17.463Z,0.60
2024-02-22T22:14:44.404Z,0.70
2024-02-22T22:17:11.373Z,1.00
2024-02-22T22:19:38.393Z,0.80
2024-02-22T22:22:05.573Z,0.80
2024-02-22T22:24:33.827Z,0.90
2024-02-22T22:27:00.835Z,0.70
2024-02-22T22:29:27.873Z,0.60
2024-02-22T22:31:54.968Z,0.70
2024-02-22T22:34:22.050Z,0.70
2024-02-22T22:36:49.032Z,0.67
2024-02-22T22:39:16.457Z,0.83
2024-02-22T22:41:43.442Z,0.80
2024-02-22T22:44:10.671Z,0.80
2024-02-22T22:46:37.664Z,0.70
2024-02-22T22:49:04.710Z,0.70
2024-02-22T22:51:32.140Z,0.67
2024-02-22T22:53:59.089Z,0.80
2024-02-22T22:56:26.055Z,0.70
2024-02-22T22:58:53.134Z,0.87
2024-02-22T23:01:20.451Z,0.73
2024-02-22T23:03:47.950Z,0.90
2024-02-22T23:06:18.173Z,0.70
2024-02-22T23:08:45.486Z,0.80
2024-02-22T23:11:12.650Z,0.70
2024-02-22T23:13:40.450Z,0.70
2024-02-22T23:16:07.727Z,0.83
2024-02-22T23:18:34.792Z,0.60
2024-02-22T23:21:02.149Z,1.13
2024-02-22T23:23:29.208Z,0.80
2024-02-22T23:25:56.402Z,1.00
2024-02-22T23:28:25.208Z,0.80
2024-02-22T23:30:52.745Z,0.70
2024-02-22T23:33:21.417Z,0.83
2024-02-22T23:35:50.471Z,0.80
2024-02-22T23:38:17.653Z,1.00
2024-02-22T23:40:56.710Z,0.60
2024-02-22T23:43:31.624Z,0.60
2024-02-22T23:45:58.535Z,0.70
2024-02-22T23:53:19.306Z,2.00
2024-02-22T23:55:46.447Z,1.10
2024-02-22T23:58:13.368Z,0.80
